createdAt,value
2023-04-21T00:01:36.874Z,22.30
2023-04-21T00:06:41.697Z,24.30
2023-04-21T00:11:44.821Z,38.20
2023-04-21T00:16:52.894Z,22.30
2023-04-21T00:21:59.127Z,23.00
2023-04-21T00:27:04.556Z,21.50
2023-04-21T00:32:10.405Z,25.63
2023-04-21T00:37:13.928Z,26.63
2023-04-21T00:42:18.571Z,28.23
2023-04-21T00:47:24.068Z,26.73
2023-04-21T00:52:28.437Z,27.20
2023-04-21T00:57:33.576Z,28.77
2023-04-21T01:02:42.838Z,27.33
2023-04-21T01:07:51.710Z,26.43
2023-04-21T01:12:55.159Z,25.93
2023-04-21T01:18:00.118Z,29.53
2023-04-21T01:23:08.934Z,26.53
2023-04-21T01:28:12.740Z,29.43
2023-04-21T01:33:16.901Z,28.93
2023-04-21T01:38:22.353Z,29.47
2023-04-21T01:43:27.294Z,27.10
2023-04-21T01:48:31.154Z,26.53
2023-04-21T01:53:36.018Z,28.70
2023-04-21T01:58:41.574Z,25.80
2023-04-21T02:03:46.423Z,24.43
2023-04-21T02:08:51.591Z,23.43
2023-04-21T02:13:56.303Z,26.33
2023-04-21T02:19:00.760Z,20.53
2023-04-21T02:24:07.210Z,26.20
2023-04-21T02:29:12.355Z,22.80
2023-04-21T02:34:17.338Z,26.23
2023-04-21T02:39:22.469Z,26.47
2023-04-21T02:44:26.386Z,20.53
2023-04-21T02:49:29.852Z,20.90
2023-04-21T02:54:34.458Z,27.97
2023-04-21T02:59:40.846Z,20.87
2023-04-21T03:04:44.422Z,24.47
2023-04-21T03:09:49.922Z,22.23
2023-04-21T03:14:53.349Z,24.07
2023-04-21T03:19:56.602Z,19.57
2023-04-21T03:25:01.900Z,25.50
2023-04-21T03:30:07.152Z,20.60
2023-04-21T03:35:10.893Z,25.13
2023-04-21T03:40:17.615Z,21.83
2023-04-21T03:45:22.958Z,20.70
2023-04-21T03:50:26.606Z,18.33
2023-04-21T03:55:31.437Z,21.00
2023-04-21T04:01:07.753Z,19.90
2023-04-21T04:06:13.758Z,17.93
2023-04-21T04:11:20.136Z,22.10
2023-04-21T04:16:25.163Z,16.70
2023-04-21T04:21:28.696Z,24.27
2023-04-21T04:26:35.693Z,20.27
2023-04-21T04:31:41.888Z,22.40
2023-04-21T04:36:46.242Z,19.63
2023-04-21T04:41:52.838Z,17.20
2023-04-21T04:46:56.916Z,20.50
2023-04-21T04:52:02.097Z,21.17
2023-04-21T04:57:10.216Z,17.50
2023-04-21T05:02:14.284Z,18.47
2023-04-21T05:07:17.850Z,17.27
2023-04-21T05:12:23.350Z,21.23
2023-04-21T05:17:28.989Z,17.93
2023-04-21T05:22:36.136Z,24.30
2023-04-21T05:27:41.110Z,18.73
2023-04-21T05:32:45.462Z,15.00
2023-04-21T05:37:49.549Z,16.23
2023-04-21T05:42:58.916Z,14.63
2023-04-21T05:48:05.500Z,19.13
2023-04-21T05:53:11.866Z,12.70
2023-04-21T05:58:17.591Z,15.20
2023-04-21T06:03:23.704Z,13.18
2023-04-21T06:08:27.446Z,14.75
2023-04-21T06:13:38.345Z,14.45
2023-04-21T06:18:42.644Z,16.67
2023-04-21T06:23:46.392Z,16.20
2023-04-21T06:28:51.533Z,15.45
2023-04-21T06:33:55.074Z,11.88
2023-04-21T06:38:59.932Z,15.80
2023-04-21T06:44:05.196Z,14.38
2023-04-21T06:49:08.744Z,12.95
2023-04-21T06:54:13.219Z,12.10
2023-04-21T06:59:19.100Z,14.07
2023-04-21T07:04:30.317Z,15.88
2023-04-21T07:09:34.531Z,11.75
2023-04-21T07:14:40.503Z,15.70
2023-04-21T07:19:43.946Z,11.63
2023-04-21T07:24:49.493Z,10.40
2023-04-21T07:29:54.373Z,13.45
2023-04-21T07:34:59.507Z,13.80
2023-04-21T07:40:04.232Z,12.30
2023-04-21T07:45:10.122Z,13.93
2023-04-21T07:50:14.169Z,13.13
2023-04-21T07:55:18.602Z,11.95
2023-04-21T08:00:25.525Z,11.13
2023-04-21T08:05:32.679Z,8.90
2023-04-21T08:10:37.486Z,13.93
2023-04-21T08:15:42.482Z,13.77
2023-04-21T08:20:47.221Z,8.52
2023-04-21T08:25:50.567Z,8.70
2023-04-21T08:31:00.759Z,9.02
2023-04-21T08:36:12.298Z,11.95
2023-04-21T08:41:23.910Z,9.70
2023-04-21T08:46:29.920Z,7.75
2023-04-21T08:51:34.022Z,14.00
2023-04-21T08:56:37.343Z,12.60
2023-04-21T09:02:16.926Z,9.48
2023-04-21T09:07:34.922Z,11.25
2023-04-21T09:12:41.157Z,12.00
2023-04-21T09:17:47.004Z,9.60
2023-04-21T09:22:51.493Z,11.85
2023-04-21T09:27:56.322Z,8.95
2023-04-21T09:33:01.329Z,11.27
2023-04-21T09:38:06.598Z,7.15
2023-04-21T09:43:12.153Z,8.35
2023-04-21T09:48:22.303Z,11.70
2023-04-21T09:53:28.939Z,9.55
2023-04-21T09:58:38.223Z,12.98
2023-04-21T10:03:46.239Z,6.32
2023-04-21T10:08:53.706Z,7.20
2023-04-21T10:13:58.597Z,7.50
2023-04-21T10:19:04.356Z,6.65
2023-04-21T10:24:08.770Z,11.07
2023-04-21T10:29:12.553Z,6.32
2023-04-21T10:34:23.383Z,11.35
2023-04-21T10:39:28.784Z,7.35
2023-04-21T10:44:32.484Z,6.75
2023-04-21T10:49:40.545Z,7.90
2023-04-21T10:54:46.120Z,8.10
2023-04-21T10:59:50.971Z,9.23
2023-04-21T11:04:57.048Z,7.15
2023-04-21T11:10:03.505Z,11.63
2023-04-21T11:15:09.735Z,6.03
2023-04-21T11:20:15.023Z,6.70
2023-04-21T11:25:19.803Z,5.28
2023-04-21T11:30:23.630Z,9.52
2023-04-21T11:35:39.210Z,9.00
2023-04-21T11:40:48.110Z,6.65
2023-04-21T11:45:52.363Z,6.82
2023-04-21T11:50:59.286Z,4.43
2023-04-21T11:56:02.930Z,6.88
2023-04-21T12:01:09.511Z,7.13
2023-04-21T12:06:22.390Z,6.78
2023-04-21T12:11:26.673Z,5.47
2023-04-21T12:16:31.029Z,5.30
2023-04-21T12:21:39.621Z,6.35
2023-04-21T12:26:43.432Z,4.82
2023-04-21T12:31:47.458Z,11.82
2023-04-21T12:36:52.587Z,7.97
2023-04-21T12:41:57.480Z,7.18
2023-04-21T12:47:01.074Z,10.30
2023-04-21T12:52:10.215Z,3.35
2023-04-21T12:57:14.084Z,8.23
2023-04-21T13:02:18.000Z,2.65
2023-04-21T13:07:27.133Z,6.47
2023-04-21T13:12:31.827Z,7.05
2023-04-21T13:17:35.457Z,5.05
2023-04-21T13:22:41.258Z,6.50
2023-04-21T13:27:44.557Z,8.13
2023-04-21T13:32:48.059Z,4.85
2023-04-21T13:37:54.487Z,6.43
2023-04-21T13:42:58.980Z,6.85
2023-04-21T13:48:02.955Z,6.85
2023-04-21T13:53:08.028Z,6.22
2023-04-21T13:58:12.328Z,3.67
2023-04-21T14:03:16.834Z,9.85
2023-04-21T14:08:22.158Z,5.63
2023-04-21T14:13:37.333Z,4.28
2023-04-21T14:18:46.726Z,6.63
2023-04-21T14:23:53.909Z,5.18
2023-04-21T14:28:57.895Z,9.23
2023-04-21T14:34:01.729Z,6.43
2023-04-21T14:39:10.554Z,3.78
2023-04-21T14:44:14.117Z,9.10
2023-04-21T14:49:18.386Z,5.03
2023-04-21T14:54:23.188Z,5.25
2023-04-21T14:59:26.801Z,6.40
2023-04-21T15:04:30.380Z,7.00
2023-04-21T15:09:36.737Z,6.38
2023-04-21T15:14:40.661Z,4.90
2023-04-21T15:19:44.080Z,3.75
2023-04-21T15:24:48.999Z,5.80
2023-04-21T15:29:52.502Z,4.35
2023-04-21T15:34:56.198Z,5.07
2023-04-21T15:40:01.296Z,4.53
2023-04-21T15:45:05.661Z,6.03
2023-04-21T15:50:10.079Z,4.88
2023-04-21T15:55:15.635Z,9.25
2023-04-21T16:00:21.270Z,7.82
2023-04-21T16:05:28.471Z,8.32
2023-04-21T16:10:34.615Z,3.80
2023-04-21T16:15:39.871Z,6.47
2023-04-21T16:20:45.972Z,6.40
2023-04-21T16:25:51.338Z,6.53
2023-04-21T16:30:55.695Z,7.68
2023-04-21T16:35:59.140Z,4.30
2023-04-21T16:41:03.879Z,6.50
2023-04-21T16:46:07.899Z,7.80
2023-04-21T16:51:11.355Z,7.03
2023-04-21T16:56:16.589Z,10.70
2023-04-21T17:01:20.306Z,7.22
2023-04-21T17:06:24.710Z,7.53
2023-04-21T17:11:32.792Z,4.85
2023-04-21T17:16:36.594Z,5.05
2023-04-21T17:21:40.275Z,8.90
2023-04-21T17:26:45.940Z,6.57
2023-04-21T17:31:50.463Z,5.25
2023-04-21T17:36:53.811Z,8.70
2023-04-21T17:41:58.772Z,6.65
2023-04-21T17:47:02.358Z,3.70
2023-04-21T17:52:06.718Z,10.35
2023-04-21T17:57:14.329Z,4.10
2023-04-21T18:02:19.446Z,4.75
2023-04-21T18:07:23.745Z,5.05
2023-04-21T18:12:30.293Z,6.60
2023-04-21T18:17:35.021Z,7.22
2023-04-21T18:22:38.667Z,6.28
2023-04-21T18:27:44.240Z,4.78
2023-04-21T18:32:49.842Z,5.88
2023-04-21T18:37:54.052Z,7.60
2023-04-21T18:42:59.278Z,6.22
2023-04-21T18:48:05.589Z,6.40
2023-04-21T18:53:10.156Z,5.75
2023-04-21T18:58:15.561Z,5.82
2023-04-21T19:03:20.701Z,6.57
2023-04-21T19:08:34.276Z,9.38
2023-04-21T19:13:43.628Z,6.53
2023-04-21T19:18:50.137Z,6.03
2023-04-21T19:23:54.978Z,5.15
2023-04-21T19:29:03.960Z,6.00
2023-04-21T19:34:08.963Z,6.90
2023-04-21T19:39:13.456Z,8.35
2023-04-21T19:44:18.298Z,8.32
2023-04-21T19:49:22.136Z,5.75
2023-04-21T19:54:26.104Z,7.20
2023-04-21T19:59:31.211Z,9.35
2023-04-21T20:04:37.879Z,6.00
2023-04-21T20:09:41.527Z,6.55
2023-04-21T20:14:46.242Z,6.75
2023-04-21T20:19:50.442Z,9.48
2023-04-21T20:24:54.312Z,6.78
2023-04-21T20:30:01.729Z,8.05
2023-04-21T20:35:07.884Z,5.70
2023-04-21T20:40:13.428Z,7.25
2023-04-21T20:45:19.915Z,7.47
2023-04-21T20:50:26.064Z,7.93
2023-04-21T20:55:29.647Z,7.85
2023-04-21T21:00:35.843Z,7.88
2023-04-21T21:05:39.546Z,8.93
2023-04-21T21:10:44.357Z,8.88
2023-04-21T21:15:49.758Z,8.20
2023-04-21T21:20:53.169Z,9.02
2023-04-21T21:25:58.858Z,10.15
2023-04-21T21:31:04.162Z,10.68
2023-04-21T21:36:11.112Z,7.28
2023-04-21T21:41:14.932Z,6.70
2023-04-21T21:46:20.296Z,6.53
2023-04-21T21:51:24.781Z,7.95
2023-04-21T21:56:28.302Z,7.18
2023-04-21T22:01:33.762Z,9.48
2023-04-21T22:06:37.283Z,9.10
2023-04-21T22:11:40.994Z,9.98
2023-04-21T22:16:46.323Z,12.90
2023-04-21T22:21:50.675Z,7.93
2023-04-21T22:26:54.337Z,12.13
2023-04-21T22:32:00.622Z,12.45
2023-04-21T22:37:05.853Z,7.68
2023-04-21T22:42:10.299Z,8.73
2023-04-21T22:47:15.454Z,8.15
2023-04-21T22:52:19.454Z,6.65
2023-04-21T22:57:23.292Z,9.48
2023-04-21T23:02:28.205Z,11.18
2023-04-21T23:07:34.167Z,10.27
2023-04-21T23:12:37.607Z,10.80
2023-04-21T23:17:43.670Z,9.13
2023-04-21T23:22:47.180Z,9.00
2023-04-21T23:27:50.448Z,6.95
2023-04-21T23:32:56.627Z,7.68
2023-04-21T23:38:00.553Z,8.98
2023-04-21T23:43:03.713Z,6.70
2023-04-21T23:48:08.575Z,9.73
2023-04-21T23:53:12.433Z,10.43
2023-04-21T23:58:15.771Z,8.20
